Time;durP1;ratioP1;P1;durP2;ratioP2;P2;SDS_P1;SDS_P2;PMS_P1;PMS_P2;Temp;Humidity;BMP_temperature;BMP_pressure;BME280_temperature;BME280_humidity;BME280_pressure;Samples;Min_cycle;Max_cycle;Signal;HPM_P1;HPM_P2
2022/05/03 00:00:16;;;;;;;7.75;6.50;;;11.70;99.90;;;;;;5051857;28;20032;-66
2022/05/03 00:02:50;;;;;;;7.60;6.10;;;11.80;99.90;;;;;;5051964;28;20462;-66
2022/05/03 00:05:37;;;;;;;7.57;6.82;;;11.70;99.90;;;;;;5051617;28;20029;-66
2022/05/03 00:08:27;;;;;;;11.77;7.95;;;11.70;99.90;;;;;;5051463;28;20040;-66
2022/05/03 00:11:27;;;;;;;9.57;7.75;;;11.70;99.90;;;;;;5052249;28;20080;-66
2022/05/03 00:14:15;;;;;;;8.15;7.07;;;11.70;99.90;;;;;;5048067;28;20039;-66
2022/05/03 00:16:44;;;;;;;9.10;7.72;;;11.70;99.90;;;;;;5051829;28;20036;-66
2022/05/03 00:19:10;;;;;;;8.02;7.22;;;11.70;99.90;;;;;;5051495;28;20025;-67
2022/05/03 00:21:37;;;;;;;11.30;7.95;;;11.70;99.90;;;;;;5052031;28;20068;-66
2022/05/03 00:24:04;;;;;;;9.02;7.60;;;11.70;99.90;;;;;;5050999;28;20029;-66
2022/05/03 00:26:30;;;;;;;8.13;7.25;;;11.70;99.90;;;;;;5052032;28;20092;-66
2022/05/03 00:28:57;;;;;;;8.38;7.55;;;11.60;99.90;;;;;;5050925;28;20025;-66
2022/05/03 00:31:24;;;;;;;8.20;7.35;;;11.60;99.90;;;;;;5050697;28;20033;-66
2022/05/03 00:33:51;;;;;;;10.70;7.65;;;11.60;99.90;;;;;;5051850;28;20021;-67
2022/05/03 00:36:17;;;;;;;10.20;8.30;;;11.60;99.90;;;;;;5050736;28;20288;-67
2022/05/03 00:38:42;;;;;;;8.38;7.45;;;11.50;99.90;;;;;;5051623;28;20470;-67
2022/05/03 00:41:10;;;;;;;10.55;7.80;;;11.50;99.90;;;;;;5051250;28;20033;-66
2022/05/03 00:43:54;;;;;;;9.77;8.50;;;11.40;99.90;;;;;;5051852;28;20478;-66
2022/05/03 00:46:25;;;;;;;9.90;8.73;;;11.40;99.90;;;;;;5051305;28;20040;-66
2022/05/03 00:49:38;;;;;;;10.15;7.97;;;11.40;99.90;;;;;;5052022;28;20051;-66
2022/05/03 00:52:11;;;;;;;10.70;8.38;;;11.30;99.90;;;;;;5030909;28;20044;-66
2022/05/03 00:54:59;;;;;;;9.48;8.07;;;11.30;99.90;;;;;;5032315;28;20040;-66
2022/05/03 00:58:02;;;;;;;10.27;8.73;;;11.20;99.90;;;;;;5040290;28;20032;-66
2022/05/03 01:00:31;;;;;;;9.20;7.90;;;11.20;99.90;;;;;;5051136;28;20410;-66
2022/05/03 01:02:59;;;;;;;9.75;7.78;;;11.10;99.90;;;;;;5051274;28;20075;-66
2022/05/03 01:05:27;;;;;;;11.05;9.07;;;11.00;99.90;;;;;;5051838;28;20104;-67
2022/05/03 01:08:07;;;;;;;12.82;8.48;;;11.00;99.90;;;;;;5051186;28;20048;-66
2022/05/03 01:11:15;;;;;;;10.53;9.43;;;11.00;99.90;;;;;;5051587;28;20056;-67
2022/05/03 01:13:50;;;;;;;10.77;9.13;;;10.90;99.90;;;;;;5051506;28;20028;-67
2022/05/03 01:16:57;;;;;;;11.45;9.43;;;10.90;99.90;;;;;;5051049;28;20040;-67
2022/05/03 01:19:53;;;;;;;11.00;9.50;;;10.90;99.90;;;;;;5050956;28;20036;-66
2022/05/03 01:22:19;;;;;;;11.20;9.80;;;10.80;99.90;;;;;;5050665;28;20912;-66
2022/05/03 01:25:09;;;;;;;15.18;10.63;;;10.80;99.90;;;;;;5051713;28;20028;-67
2022/05/03 01:27:49;;;;;;;13.55;10.63;;;10.70;99.90;;;;;;5051468;28;20041;-67
2022/05/03 01:30:16;;;;;;;11.93;10.30;;;10.70;99.90;;;;;;5050940;28;20025;-66
2022/05/03 01:32:43;;;;;;;10.68;8.93;;;10.70;99.90;;;;;;5051185;28;20083;-67
2022/05/03 01:35:13;;;;;;;12.70;10.70;;;10.60;99.90;;;;;;5050564;28;20116;-67
2022/05/03 01:38:03;;;;;;;13.45;11.15;;;10.60;99.90;;;;;;5051215;28;20359;-66
2022/05/03 01:40:50;;;;;;;13.68;12.27;;;10.50;99.90;;;;;;5046061;28;20037;-67
2022/05/03 01:43:18;;;;;;;13.48;11.80;;;10.50;99.90;;;;;;5041963;28;20420;-67
2022/05/03 01:46:18;;;;;;;14.30;11.35;;;10.50;99.90;;;;;;5051166;28;20100;-67
2022/05/03 01:52:12;;;;;;;16.40;12.38;;;10.40;99.90;;;;;;5032862;28;20052;-65
2022/05/03 01:55:00;;;;;;;14.70;11.45;;;10.30;99.90;;;;;;5051486;28;20449;-66
2022/05/03 01:57:43;;;;;;;15.05;12.30;;;10.20;99.90;;;;;;5050573;28;20497;-66
2022/05/03 02:00:11;;;;;;;14.30;12.80;;;10.20;99.90;;;;;;5049529;28;20416;-66
2022/05/03 02:03:02;;;;;;;14.50;12.32;;;10.10;99.90;;;;;;5054369;28;20021;-65
2022/05/03 02:06:04;;;;;;;15.57;13.05;;;10.10;99.90;;;;;;5054722;28;20029;-66
2022/05/03 02:09:02;;;;;;;15.77;14.10;;;10.00;99.90;;;;;;5041053;28;20083;-66
2022/05/03 02:11:27;;;;;;;15.90;14.15;;;10.00;99.90;;;;;;5053734;28;20057;-66
2022/05/03 02:17:12;;;;;;;19.52;14.90;;;9.90;99.90;;;;;;5054241;28;20082;-66
2022/05/03 02:20:01;;;;;;;18.80;14.35;;;9.80;99.90;;;;;;5054811;28;20470;-66
2022/05/03 02:22:47;;;;;;;16.83;14.15;;;9.80;99.90;;;;;;5052784;28;20405;-67
2022/05/03 02:25:45;;;;;;;19.10;14.90;;;9.80;99.90;;;;;;5053369;28;20032;-66
2022/05/03 02:28:19;;;;;;;18.13;14.50;;;9.70;99.90;;;;;;5053049;28;20041;-66
2022/05/03 02:30:49;;;;;;;19.60;16.15;;;9.70;99.90;;;;;;5072030;28;20032;-66
2022/05/03 02:33:28;;;;;;;19.35;16.85;;;9.60;99.90;;;;;;5054447;28;20074;-67
2022/05/03 02:35:59;;;;;;;21.00;17.05;;;9.60;99.90;;;;;;5054255;28;20025;-66
2022/05/03 02:38:42;;;;;;;19.95;16.90;;;9.60;99.90;;;;;;5053372;28;20040;-66
2022/05/03 02:41:10;;;;;;;19.10;16.05;;;9.60;99.90;;;;;;5053114;28;20087;-66
2022/05/03 02:43:38;;;;;;;23.20;16.88;;;9.60;99.90;;;;;;5053484;28;20036;-68
2022/05/03 02:46:44;;;;;;;20.88;16.55;;;9.50;99.90;;;;;;5053140;28;20040;-66
2022/05/03 02:49:27;;;;;;;20.05;16.63;;;9.50;99.90;;;;;;5050599;28;20521;-66
2022/05/03 02:52:23;;;;;;;20.58;17.98;;;9.50;99.90;;;;;;5051442;28;20032;-66
2022/05/03 02:55:10;;;;;;;21.10;17.80;;;9.50;99.90;;;;;;5053530;28;20470;-66
2022/05/03 02:57:50;;;;;;;21.15;17.75;;;9.50;99.90;;;;;;5053150;28;20029;-67
2022/05/03 03:03:31;;;;;;;23.95;17.95;;;9.50;99.90;;;;;;5053437;28;20082;-66
2022/05/03 03:06:01;;;;;;;23.65;18.73;;;9.40;99.90;;;;;;5053485;28;20033;-67
2022/05/03 03:08:32;;;;;;;19.42;17.10;;;9.40;99.90;;;;;;5052800;28;20048;-68
2022/05/03 03:11:05;;;;;;;22.55;18.95;;;9.40;99.90;;;;;;5053516;28;20048;-66
2022/05/03 03:14:10;;;;;;;26.60;20.80;;;9.30;99.90;;;;;;5051699;28;20474;-66
2022/05/03 03:16:46;;;;;;;24.50;20.55;;;9.30;99.90;;;;;;5050851;28;20037;-66
2022/05/03 03:19:44;;;;;;;25.00;19.80;;;9.40;99.90;;;;;;5036258;28;20093;-66
2022/05/03 03:22:15;;;;;;;26.02;21.00;;;9.30;99.90;;;;;;5052528;28;20113;-66
2022/05/03 03:24:40;;;;;;;;;;;9.30;99.90;;;;;;5053928;28;20021;-66
2022/05/03 03:27:11;;;;;;;22.30;18.80;;;9.20;99.90;;;;;;5052685;28;19956;-67
2022/05/03 03:29:41;;;;;;;26.10;20.42;;;9.20;99.90;;;;;;5052922;28;20041;-65
2022/05/03 03:32:09;;;;;;;21.52;18.45;;;9.20;99.90;;;;;;5054748;28;20112;-66
2022/05/03 03:34:39;;;;;;;22.50;18.25;;;9.10;99.90;;;;;;5052709;28;20390;-66
2022/05/03 03:37:07;;;;;;;22.55;19.58;;;9.10;99.90;;;;;;5052597;28;20025;-66
2022/05/03 03:39:34;;;;;;;25.52;20.55;;;9.10;99.90;;;;;;5052509;28;20394;-66
2022/05/03 03:42:05;;;;;;;31.42;22.85;;;9.00;99.90;;;;;;5049119;28;20026;-66
2022/05/03 03:44:31;;;;;;;28.05;22.48;;;9.10;99.90;;;;;;5053354;28;20568;-66
2022/05/03 03:47:00;;;;;;;30.33;24.77;;;9.10;99.90;;;;;;5052477;28;20033;-66
2022/05/03 03:49:29;;;;;;;26.67;23.20;;;9.20;99.90;;;;;;5052130;28;20029;-67
2022/05/03 03:51:59;;;;;;;29.40;22.65;;;9.20;99.90;;;;;;5052465;28;20120;-66
2022/05/03 03:54:25;;;;;;;29.88;23.98;;;9.20;99.90;;;;;;5052023;28;20206;-67
2022/05/03 03:56:51;;;;;;;27.85;23.10;;;9.20;99.90;;;;;;5052844;28;20029;-66
2022/05/03 03:59:18;;;;;;;24.50;21.00;;;9.20;99.90;;;;;;5050080;28;20033;-65
2022/05/03 04:01:44;;;;;;;28.30;22.98;;;9.20;99.90;;;;;;5052381;28;20108;-66
2022/05/03 04:04:11;;;;;;;26.05;22.05;;;9.20;99.90;;;;;;5051716;28;20060;-66
2022/05/03 04:06:37;;;;;;;25.10;21.83;;;9.20;99.90;;;;;;5051867;28;20037;-66
2022/05/03 04:09:03;;;;;;;28.15;21.52;;;9.20;99.90;;;;;;5052052;28;20127;-66
2022/05/03 04:11:44;;;;;;;24.90;20.98;;;9.20;99.90;;;;;;5051597;28;20514;-66
2022/05/03 04:14:11;;;;;;;26.80;20.75;;;9.20;99.90;;;;;;5043668;28;20033;-66
2022/05/03 04:16:37;;;;;;;31.52;22.25;;;9.20;99.90;;;;;;5052216;28;20049;-66
2022/05/03 04:19:02;;;;;;;27.15;23.08;;;9.20;99.90;;;;;;5051909;28;20053;-67
2022/05/03 04:21:28;;;;;;;29.15;23.63;;;9.20;99.90;;;;;;5050395;28;20029;-66
2022/05/03 04:23:54;;;;;;;28.55;24.13;;;9.20;99.90;;;;;;5051387;28;20021;-66
2022/05/03 04:26:19;;;;;;;28.00;20.27;;;9.30;99.90;;;;;;5051486;28;20033;-66
2022/05/03 04:28:45;;;;;;;24.85;20.30;;;9.30;99.90;;;;;;5052073;28;20025;-66
2022/05/03 04:31:10;;;;;;;24.25;19.75;;;9.30;99.90;;;;;;5050860;28;20021;-66
2022/05/03 04:33:36;;;;;;;25.35;20.70;;;9.20;99.90;;;;;;5051793;28;20100;-66
2022/05/03 04:36:02;;;;;;;26.33;21.83;;;9.20;99.90;;;;;;5052062;28;20104;-66
2022/05/03 04:38:28;;;;;;;23.63;21.08;;;9.20;99.90;;;;;;5050932;28;20033;-66
2022/05/03 04:41:12;;;;;;;24.05;21.20;;;9.20;99.90;;;;;;5051518;28;20083;-66
2022/05/03 04:43:38;;;;;;;25.08;21.00;;;9.30;99.90;;;;;;5044180;28;20021;-66
2022/05/03 04:46:04;;;;;;;27.55;22.23;;;9.30;99.90;;;;;;5047431;28;20025;-66
2022/05/03 04:48:30;;;;;;;24.50;20.45;;;9.30;99.90;;;;;;5047556;28;20039;-65
2022/05/03 04:50:55;;;;;;;27.60;23.33;;;9.30;99.90;;;;;;5050185;28;20029;-66
2022/05/03 04:53:22;;;;;;;24.98;21.52;;;9.40;99.90;;;;;;5051201;28;20057;-66
2022/05/03 04:55:49;;;;;;;24.77;20.00;;;9.40;99.90;;;;;;5052944;28;20061;-66
2022/05/03 04:58:15;;;;;;;25.15;20.50;;;9.50;99.90;;;;;;5050709;28;20039;-66
2022/05/03 05:00:41;;;;;;;21.98;19.20;;;9.50;99.90;;;;;;5051883;28;20033;-66
2022/05/03 05:03:07;;;;;;;22.58;19.23;;;9.60;99.90;;;;;;5050957;28;20025;-66
2022/05/03 05:05:32;;;;;;;22.40;18.77;;;9.70;99.90;;;;;;5050883;28;20546;-67
2022/05/03 05:08:03;;;;;;;23.05;19.55;;;9.80;99.90;;;;;;5051558;28;20041;-66
2022/05/03 05:10:30;;;;;;;26.05;20.75;;;9.80;99.90;;;;;;5050543;28;20173;-69
2022/05/03 05:12:56;;;;;;;24.77;20.58;;;9.90;99.90;;;;;;5051476;28;20082;-66
2022/05/03 05:15:25;;;;;;;25.42;21.67;;;10.00;99.90;;;;;;5051082;28;20100;-66
2022/05/03 05:17:58;;;;;;;22.63;18.42;;;10.10;99.90;;;;;;5052134;28;20560;-66
2022/05/03 05:20:25;;;;;;;24.00;19.60;;;10.10;99.90;;;;;;5051128;28;20044;-66
2022/05/03 05:22:51;;;;;;;21.63;18.80;;;10.30;99.90;;;;;;5051351;28;20037;-66
2022/05/03 05:25:17;;;;;;;18.65;16.65;;;10.40;99.90;;;;;;5050571;28;20432;-67
2022/05/03 05:27:43;;;;;;;23.40;20.45;;;10.40;99.90;;;;;;5051610;28;20028;-67
2022/05/03 05:30:09;;;;;;;24.45;19.90;;;10.60;99.90;;;;;;5051172;28;20108;-65
2022/05/03 05:32:36;;;;;;;31.25;20.48;;;10.80;99.90;;;;;;5051101;28;20033;-66
2022/05/03 05:35:04;;;;;;;25.45;19.80;;;10.90;99.90;;;;;;5051629;28;20109;-67
2022/05/03 05:37:32;;;;;;;26.40;17.80;;;11.00;99.90;;;;;;5050858;28;20025;-68
2022/05/03 05:39:58;;;;;;;20.05;17.88;;;11.10;99.90;;;;;;5047186;28;20044;-70
2022/05/03 05:42:25;;;;;;;20.27;17.35;;;11.10;99.90;;;;;;5056133;28;20088;-69
2022/05/03 05:44:51;;;;;;;22.45;17.17;;;11.20;99.90;;;;;;5054501;28;20024;-69
2022/05/03 05:47:18;;;;;;;23.80;18.58;;;11.20;99.90;;;;;;5052541;28;20545;-68
2022/05/03 05:49:43;;;;;;;23.52;17.45;;;11.30;99.90;;;;;;5054830;28;20078;-69
2022/05/03 05:54:54;;;;;;;19.10;16.98;;;11.50;99.90;;;;;;5055100;28;20083;-69
2022/05/03 05:57:20;;;;;;;21.90;16.95;;;11.60;99.90;;;;;;5055448;28;20033;-70
2022/05/03 05:59:46;;;;;;;21.25;17.90;;;11.70;99.90;;;;;;5053656;28;20444;-74
2022/05/03 06:02:12;;;;;;;21.35;15.82;;;11.90;99.90;;;;;;5053952;28;20385;-68
2022/05/03 06:04:37;;;;;;;19.73;15.95;;;12.00;99.90;;;;;;5054190;28;20104;-68
2022/05/03 06:07:03;;;;;;;20.50;16.15;;;12.10;99.90;;;;;;5046343;28;20113;-70
2022/05/03 06:09:29;;;;;;;19.42;16.10;;;12.20;99.90;;;;;;5052737;28;20088;-69
2022/05/03 06:11:54;;;;;;;18.90;15.98;;;12.40;99.90;;;;;;5054144;28;20032;-70
2022/05/03 06:14:20;;;;;;;16.98;15.18;;;12.60;99.90;;;;;;5052452;28;20025;-69
2022/05/03 06:16:54;;;;;;;17.05;13.90;;;12.80;99.90;;;;;;5053410;28;20517;-69
2022/05/03 06:19:20;;;;;;;16.45;14.75;;;13.00;99.90;;;;;;5051629;28;20032;-68
2022/05/03 06:21:46;;;;;;;16.52;14.50;;;13.00;99.90;;;;;;5052761;28;20508;-71
2022/05/03 06:24:13;;;;;;;18.42;15.25;;;13.10;99.90;;;;;;5052453;28;20033;-70
2022/05/03 06:26:38;;;;;;;18.27;14.55;;;13.20;99.90;;;;;;5052814;28;20032;-69
2022/05/03 06:29:08;;;;;;;17.45;13.80;;;13.20;99.90;;;;;;5052841;28;20037;-70
2022/05/03 06:31:44;;;;;;;22.02;14.32;;;13.20;99.90;;;;;;5052386;28;20025;-70
2022/05/03 06:34:10;;;;;;;15.48;13.65;;;13.40;99.90;;;;;;5052604;28;20466;-70
2022/05/03 06:36:36;;;;;;;18.02;14.68;;;13.50;99.90;;;;;;5051541;28;20083;-70
2022/05/03 06:39:03;;;;;;;20.40;15.18;;;13.70;99.90;;;;;;5052321;28;20041;-70
2022/05/03 06:41:29;;;;;;;16.45;14.27;;;13.80;99.90;;;;;;5040115;28;20029;-69
2022/05/03 06:43:58;;;;;;;17.55;13.85;;;14.00;99.90;;;;;;5049920;28;20064;-70
2022/05/03 06:46:24;;;;;;;15.68;14.18;;;14.00;99.90;;;;;;5053692;28;20398;-70
2022/05/03 06:48:49;;;;;;;17.38;13.45;;;14.10;99.90;;;;;;5052539;28;20033;-70
2022/05/03 06:51:15;;;;;;;18.15;14.18;;;14.20;99.90;;;;;;5052106;28;20455;-69
2022/05/03 06:53:41;;;;;;;19.67;13.98;;;14.20;99.90;;;;;;5052344;28;20586;-69
2022/05/03 06:56:07;;;;;;;19.77;12.98;;;14.30;99.90;;;;;;5052452;28;20061;-70
2022/05/03 06:58:33;;;;;;;18.83;14.63;;;14.30;99.90;;;;;;5051964;28;20254;-69
2022/05/03 07:01:13;;;;;;;15.02;13.45;;;14.30;99.90;;;;;;5052460;28;20367;-69
2022/05/03 07:03:39;;;;;;;15.00;13.38;;;14.40;99.90;;;;;;5048401;28;20478;-68
2022/05/03 07:06:05;;;;;;;17.05;14.05;;;14.50;99.90;;;;;;5051956;28;20029;-69
2022/05/03 07:08:32;;;;;;;16.83;13.93;;;14.60;99.90;;;;;;5051320;28;20040;-68
2022/05/03 07:10:57;;;;;;;17.13;13.63;;;14.70;99.90;;;;;;5051671;28;20053;-68
2022/05/03 07:13:23;;;;;;;20.02;13.65;;;14.80;99.90;;;;;;5051186;28;20526;-69
2022/05/03 07:15:53;;;;;;;16.08;13.90;;;14.90;99.90;;;;;;5052235;28;20032;-69
2022/05/03 07:23:49;;;;;;;18.73;13.73;;;15.10;99.90;;;;;;5052109;28;20032;-70
2022/05/03 07:26:16;;;;;;;15.82;13.50;;;15.20;99.90;;;;;;5051556;28;20474;-70
2022/05/03 07:28:42;;;;;;;16.70;12.98;;;15.10;99.90;;;;;;5032390;28;20032;-70
2022/05/03 07:31:10;;;;;;;14.60;11.80;;;15.20;99.90;;;;;;5038707;28;20123;-70
2022/05/03 07:33:36;;;;;;;13.23;11.73;;;15.30;99.90;;;;;;5050799;28;20025;-70
2022/05/03 07:36:03;;;;;;;12.30;10.20;;;15.50;99.90;;;;;;5051289;28;20188;-70
2022/05/03 07:38:29;;;;;;;14.35;12.10;;;15.70;99.90;;;;;;5048659;28;20037;-67
2022/05/03 07:40:56;;;;;;;13.88;11.68;;;15.90;99.90;;;;;;5052044;28;20372;-67
2022/05/03 07:43:22;;;;;;;12.38;11.07;;;16.00;99.90;;;;;;5041887;28;20466;-67
2022/05/03 07:45:48;;;;;;;14.73;11.45;;;16.00;99.90;;;;;;5051758;28;20029;-67
2022/05/03 07:48:14;;;;;;;12.35;10.73;;;16.00;99.90;;;;;;5051767;28;20032;-67
2022/05/03 07:50:40;;;;;;;13.80;11.18;;;16.00;99.90;;;;;;5050599;28;20025;-66
2022/05/03 07:53:05;;;;;;;14.45;11.23;;;16.00;99.90;;;;;;5050118;28;20437;-67
2022/05/03 07:55:31;;;;;;;13.18;9.95;;;16.00;99.90;;;;;;5050235;28;20029;-67
2022/05/03 07:57:56;;;;;;;11.45;10.15;;;16.00;99.90;;;;;;5051070;28;20041;-66
2022/05/03 08:00:23;;;;;;;13.50;9.90;;;16.10;99.90;;;;;;5049894;28;20032;-66
2022/05/03 08:02:48;;;;;;;9.68;8.70;;;16.10;99.90;;;;;;5050909;28;20036;-66
2022/05/03 08:05:15;;;;;;;12.95;9.85;;;16.30;99.90;;;;;;5050835;28;20025;-67
2022/05/03 08:07:41;;;;;;;12.27;9.30;;;16.40;99.90;;;;;;5049862;28;20025;-67
2022/05/03 08:10:07;;;;;;;12.30;9.15;;;16.50;99.90;;;;;;5050822;28;20044;-67
2022/05/03 08:12:33;;;;;;;9.45;8.52;;;16.70;99.90;;;;;;5049248;28;20029;-67
2022/05/03 08:14:58;;;;;;;8.43;7.28;;;16.80;99.90;;;;;;5051155;28;20044;-67
2022/05/03 08:17:27;;;;;;;7.93;7.13;;;16.80;99.90;;;;;;5050298;28;20099;-67
2022/05/03 08:19:53;;;;;;;10.10;8.63;;;16.80;99.90;;;;;;5050488;28;20501;-66
2022/05/03 08:22:18;;;;;;;9.27;8.30;;;17.00;99.90;;;;;;5050381;28;20055;-66
2022/05/03 08:24:44;;;;;;;8.27;7.40;;;17.20;99.90;;;;;;5050739;28;20462;-66
2022/05/03 08:27:10;;;;;;;7.80;7.10;;;17.60;99.90;;;;;;5050539;28;20182;-66
2022/05/03 08:29:35;;;;;;;9.15;8.25;;;17.70;99.90;;;;;;5049665;28;20122;-66
2022/05/03 08:32:01;;;;;;;8.32;6.15;;;17.80;99.90;;;;;;5050513;28;20592;-67
2022/05/03 08:34:28;;;;;;;8.35;6.82;;;18.10;99.30;;;;;;5049771;28;20021;-66
2022/05/03 08:42:22;;;;;;;8.70;7.18;;;18.50;96.60;;;;;;5047477;28;20047;-66
2022/05/03 08:44:48;;;;;;;10.18;7.40;;;18.50;95.80;;;;;;5050068;28;20041;-66
2022/05/03 08:47:18;;;;;;;11.02;6.82;;;18.50;96.00;;;;;;5031220;28;20039;-67
2022/05/03 08:50:08;;;;;;;13.88;7.82;;;18.50;95.30;;;;;;5051598;28;20419;-67
2022/05/03 08:52:39;;;;;;;8.35;7.20;;;18.70;95.10;;;;;;5052068;28;20490;-68
2022/05/03 08:55:05;;;;;;;9.70;7.93;;;18.70;93.60;;;;;;5051028;28;20029;-66
2022/05/03 08:57:32;;;;;;;9.63;7.78;;;18.70;94.00;;;;;;5050039;28;20029;-67
2022/05/03 08:59:58;;;;;;;9.23;6.25;;;18.70;93.90;;;;;;5051485;28;20044;-67
2022/05/03 09:02:24;;;;;;;19.67;7.65;;;18.80;93.90;;;;;;5051244;28;20028;-67
2022/05/03 09:04:49;;;;;;;7.05;6.38;;;19.00;93.60;;;;;;5050090;28;20028;-65
2022/05/03 09:07:25;;;;;;;6.55;4.75;;;19.20;93.00;;;;;;5051181;28;20358;-65
2022/05/03 09:09:53;;;;;;;6.45;5.40;;;19.60;89.10;;;;;;5031390;28;20066;-65
2022/05/03 09:12:27;;;;;;;7.70;6.25;;;19.80;88.50;;;;;;5051133;28;20036;-66
2022/05/03 09:14:59;;;;;;;9.43;5.57;;;19.90;88.70;;;;;;5054717;28;20033;-66
2022/05/03 09:17:58;;;;;;;12.00;5.80;;;19.80;87.80;;;;;;5053359;28;20037;-66
2022/05/03 09:26:21;;;;;;;9.13;5.63;;;20.00;85.80;;;;;;5047120;28;20390;-66
2022/05/03 09:28:52;;;;;;;14.50;5.97;;;20.00;85.00;;;;;;5043680;28;20385;-66
2022/05/03 09:31:28;;;;;;;12.02;5.47;;;20.20;84.00;;;;;;5051685;28;20041;-66
2022/05/03 09:33:54;;;;;;;12.60;5.80;;;20.40;82.70;;;;;;5056143;28;20033;-66
2022/05/03 09:36:20;;;;;;;6.00;4.85;;;20.70;82.20;;;;;;5047926;28;20478;-66
2022/05/03 09:38:47;;;;;;;12.65;5.10;;;20.70;80.50;;;;;;5056135;28;20068;-66
2022/05/03 09:41:14;;;;;;;16.20;5.65;;;20.80;80.60;;;;;;5055849;28;20033;-66
2022/05/03 09:44:03;;;;;;;12.43;5.18;;;20.80;80.00;;;;;;5041705;28;20029;-66
2022/05/03 09:46:29;;;;;;;9.27;5.53;;;20.60;79.80;;;;;;5051362;28;20068;-66
2022/05/03 09:48:55;;;;;;;12.02;5.38;;;20.60;79.30;;;;;;5053453;28;20025;-66
2022/05/03 09:51:24;;;;;;;10.07;5.18;;;20.50;79.90;;;;;;5053395;28;20374;-67
2022/05/03 09:53:59;;;;;;;5.35;4.85;;;20.40;81.10;;;;;;5053850;28;20090;-68
2022/05/03 09:56:30;;;;;;;9.80;4.65;;;20.40;81.00;;;;;;5053862;28;20021;-67
2022/05/03 09:59:02;;;;;;;21.50;5.63;;;20.30;79.70;;;;;;5053295;28;20075;-67
2022/05/03 10:01:30;;;;;;;17.20;5.15;;;20.30;79.50;;;;;;5054680;28;20081;-67
2022/05/03 10:03:56;;;;;;;8.32;4.80;;;20.20;80.30;;;;;;5053753;28;20024;-67
2022/05/03 10:06:23;;;;;;;10.13;3.97;;;20.30;78.80;;;;;;5054773;28;20036;-67
2022/05/03 10:08:49;;;;;;;7.50;4.65;;;20.30;76.60;;;;;;5052867;28;20108;-67
2022/05/03 10:11:18;;;;;;;6.13;4.50;;;20.30;74.90;;;;;;5054570;28;20117;-67
2022/05/03 10:13:45;;;;;;;5.82;3.83;;;20.40;75.40;;;;;;5053218;28;20481;-67
2022/05/03 10:21:50;;;;;;;12.35;4.18;;;21.00;73.20;;;;;;5052625;28;20124;-67
2022/05/03 10:24:17;;;;;;;14.57;4.30;;;21.00;72.90;;;;;;5053700;28;20474;-67
2022/05/03 10:26:52;;;;;;;8.55;4.40;;;21.10;73.80;;;;;;5052780;28;20504;-67
2022/05/03 10:29:21;;;;;;;6.60;4.32;;;21.20;74.30;;;;;;5053588;28;20029;-67
2022/05/03 10:31:51;;;;;;;5.60;4.00;;;21.40;73.20;;;;;;5053516;28;20083;-67
2022/05/03 10:34:43;;;;;;;6.03;3.53;;;21.50;71.80;;;;;;5053942;28;20021;-66
2022/05/03 10:37:25;;;;;;;4.55;3.72;;;21.60;72.00;;;;;;5053782;28;20516;-66
2022/05/03 10:39:55;;;;;;;6.40;4.30;;;21.80;71.60;;;;;;5049098;28;20059;-66
2022/05/03 10:42:25;;;;;;;7.90;4.90;;;22.10;71.50;;;;;;5053900;28;20033;-66
2022/05/03 10:44:58;;;;;;;4.25;3.90;;;22.10;71.30;;;;;;5052370;28;20036;-66
2022/05/03 10:47:43;;;;;;;5.18;3.97;;;22.30;70.70;;;;;;5053441;28;20382;-66
2022/05/03 10:50:20;;;;;;;5.53;4.05;;;22.30;68.60;;;;;;5033922;28;20454;-66
2022/05/03 10:53:06;;;;;;;4.68;4.10;;;22.30;69.30;;;;;;5033710;28;20109;-66
2022/05/03 10:55:32;;;;;;;6.00;4.57;;;22.30;70.70;;;;;;5053529;28;20021;-67
2022/05/03 10:58:28;;;;;;;9.02;4.32;;;22.40;68.40;;;;;;5052680;28;22028;-66
2022/05/03 11:01:20;;;;;;;5.05;4.30;;;22.40;68.30;;;;;;5032825;28;20045;-66
2022/05/03 11:03:48;;;;;;;4.22;3.83;;;21.90;66.60;;;;;;5052389;28;20029;-66
2022/05/03 11:06:21;;;;;;;6.40;4.18;;;21.90;67.60;;;;;;5053813;28;20025;-66
2022/05/03 11:11:43;;;;;;;3.63;3.33;;;22.20;67.00;;;;;;5053472;28;20355;-67
2022/05/03 11:14:15;;;;;;;3.33;3.03;;;22.40;67.30;;;;;;5053536;28;20546;-68
2022/05/03 11:17:04;;;;;;;9.77;3.40;;;22.60;66.10;;;;;;5052424;28;20382;-66
2022/05/03 11:19:32;;;;;;;6.82;4.00;;;22.90;65.90;;;;;;5052378;28;20116;-66
2022/05/03 11:21:58;;;;;;;4.57;3.75;;;23.00;64.80;;;;;;5052620;28;20033;-66
2022/05/03 11:24:24;;;;;;;6.40;3.47;;;23.00;64.00;;;;;;5053120;28;20051;-66
2022/05/03 11:26:56;;;;;;;5.20;4.22;;;23.00;64.90;;;;;;5050529;28;20064;-66
2022/05/03 11:29:30;;;;;;;6.80;3.20;;;23.00;64.00;;;;;;5052813;28;20090;-67
2022/05/03 11:31:58;;;;;;;7.50;4.15;;;22.70;64.20;;;;;;5050220;28;20463;-67
2022/05/03 11:34:24;;;;;;;4.82;4.28;;;22.40;64.30;;;;;;5052101;28;20047;-66
2022/05/03 11:36:50;;;;;;;4.30;3.90;;;22.50;63.80;;;;;;5051748;28;20112;-66
2022/05/03 11:39:20;;;;;;;4.90;4.10;;;22.60;64.10;;;;;;5051663;28;20044;-67
2022/05/03 11:41:47;;;;;;;28.90;5.18;;;22.80;64.20;;;;;;5047321;28;20032;-67
2022/05/03 11:44:14;;;;;;;6.15;5.00;;;23.00;65.70;;;;;;5050945;28;20529;-66
2022/05/03 11:46:42;;;;;;;11.80;5.10;;;23.10;64.00;;;;;;5050962;28;20036;-66
2022/05/03 11:49:09;;;;;;;5.63;4.40;;;23.30;63.40;;;;;;5051536;28;20041;-66
2022/05/03 11:57:25;;;;;;;5.88;4.60;;;23.50;64.90;;;;;;5051906;28;20410;-67
2022/05/03 11:59:58;;;;;;;3.60;3.30;;;23.50;60.70;;;;;;5051236;28;20029;-66
2022/05/03 12:02:38;;;;;;;5.95;3.67;;;23.70;60.60;;;;;;5052650;28;20025;-67
2022/05/03 12:05:14;;;;;;;6.75;4.22;;;24.00;60.40;;;;;;5051142;28;20578;-66
2022/05/03 12:07:44;;;;;;;4.72;4.32;;;24.40;59.70;;;;;;5052172;28;20025;-66
2022/05/03 12:10:24;;;;;;;4.00;3.60;;;24.90;58.20;;;;;;5032030;28;20053;-66
2022/05/03 12:13:17;;;;;;;6.90;4.55;;;25.10;58.50;;;;;;5031522;28;20533;-66
2022/05/03 12:15:48;;;;;;;4.30;3.90;;;25.20;57.40;;;;;;5046543;28;20114;-66
2022/05/03 12:18:23;;;;;;;5.45;3.63;;;25.00;56.60;;;;;;5051345;28;20477;-66
2022/05/03 12:20:54;;;;;;;3.95;3.50;;;24.80;55.70;;;;;;5051506;28;20033;-66
2022/05/03 12:23:19;;;;;;;8.52;3.47;;;24.60;56.00;;;;;;5051852;28;20032;-66
2022/05/03 12:25:56;;;;;;;6.30;4.07;;;24.40;55.10;;;;;;5051328;28;20021;-67
2022/05/03 12:28:38;;;;;;;4.07;3.35;;;24.00;57.40;;;;;;5051992;28;20386;-67
2022/05/03 12:31:05;;;;;;;4.30;3.90;;;23.80;58.50;;;;;;5049354;28;20382;-66
2022/05/03 12:33:32;;;;;;;5.70;3.90;;;23.60;60.80;;;;;;5050211;28;20036;-66
2022/05/03 12:35:59;;;;;;;11.07;4.20;;;23.30;62.50;;;;;;5051059;28;20517;-67
2022/05/03 12:38:26;;;;;;;8.43;4.13;;;23.00;63.10;;;;;;5051786;28;20037;-66
2022/05/03 12:40:56;;;;;;;6.50;3.90;;;22.60;63.40;;;;;;5051240;28;20116;-68
2022/05/03 12:43:23;;;;;;;5.60;3.50;;;22.30;64.20;;;;;;5034208;28;20117;-66
2022/05/03 12:46:06;;;;;;;6.28;4.20;;;22.10;64.90;;;;;;5048211;28;20433;-67
2022/05/03 12:48:34;;;;;;;7.13;3.80;;;21.80;65.50;;;;;;5050724;28;20102;-68
2022/05/03 12:51:01;;;;;;;3.78;3.33;;;21.50;65.70;;;;;;5050864;28;20032;-66
2022/05/03 12:53:31;;;;;;;4.97;3.22;;;21.20;66.70;;;;;;5051604;28;20033;-67
2022/05/03 12:58:21;;;;;;;6.00;3.10;;;21.00;67.20;;;;;;5034960;28;20025;-66
2022/05/03 12:58:45;;;;;;;7.30;3.30;;;20.80;66.90;;;;;;5050940;28;20059;-66
2022/05/03 13:01:14;;;;;;;8.25;3.00;;;20.40;66.60;;;;;;5050514;28;20036;-67
2022/05/03 13:03:39;;;;;;;5.88;2.85;;;20.00;67.60;;;;;;5050918;28;20025;-66
2022/05/03 13:06:05;;;;;;;5.22;2.90;;;19.60;69.10;;;;;;5050832;28;20035;-68
2022/05/03 13:08:33;;;;;;;4.80;3.20;;;19.20;71.20;;;;;;5051158;28;20029;-67
2022/05/03 13:10:59;;;;;;;4.32;3.05;;;18.90;72.70;;;;;;5050227;28;20068;-67
2022/05/03 13:13:24;;;;;;;4.75;3.03;;;18.60;74.30;;;;;;5051404;28;20458;-66
2022/05/03 13:15:50;;;;;;;7.15;3.13;;;18.30;75.90;;;;;;5049825;28;20038;-68
2022/05/03 13:18:16;;;;;;;5.18;3.67;;;18.10;78.30;;;;;;5050423;28;20111;-67
2022/05/03 13:20:43;;;;;;;5.85;3.20;;;17.80;80.10;;;;;;5051640;28;20056;-67
2022/05/03 13:23:10;;;;;;;7.35;3.88;;;17.70;81.40;;;;;;5050105;28;20484;-67
2022/05/03 13:25:36;;;;;;;5.50;3.80;;;17.50;83.40;;;;;;5051507;28;20375;-67
2022/05/03 13:28:05;;;;;;;5.15;3.40;;;17.40;84.90;;;;;;5034659;28;20047;-67
2022/05/03 13:30:32;;;;;;;4.97;3.03;;;17.30;84.90;;;;;;5051920;28;20031;-69
2022/05/03 13:32:58;;;;;;;3.35;2.80;;;17.20;85.20;;;;;;5050211;28;20025;-68
2022/05/03 13:40:58;;;;;;;2.58;2.38;;;16.80;86.60;;;;;;5049357;28;20120;-69
2022/05/03 13:43:23;;;;;;;3.58;2.42;;;16.80;87.60;;;;;;5046430;28;20112;-67
2022/05/03 13:45:49;;;;;;;4.82;2.33;;;16.70;89.20;;;;;;5049619;28;20470;-67
2022/05/03 13:48:16;;;;;;;4.35;2.65;;;16.60;90.40;;;;;;5048282;28;20052;-67